sensor_id;sensor_type;location;lat;lon;timestamp;temperature;humidity
55488;DHT22;41352;53.158;6.788;2022-11-15T00:00:47;7.70;99.90
55488;DHT22;41352;53.158;6.788;2022-11-15T00:03:18;7.70;99.90
55488;DHT22;41352;53.158;6.788;2022-11-15T00:08:11;7.70;99.90
55488;DHT22;41352;53.158;6.788;2022-11-15T00:10:37;7.80;99.90
55488;DHT22;41352;53.158;6.788;2022-11-15T00:13:13;7.60;99.90
55488;DHT22;41352;53.158;6.788;2022-11-15T00:15:40;7.60;99.90
55488;DHT22;41352;53.158;6.788;2022-11-15T00:18:06;7.50;99.90
55488;DHT22;41352;53.158;6.788;2022-11-15T00:20:37;7.50;99.90
55488;DHT22;41352;53.158;6.788;2022-11-15T00:23:06;7.30;99.90
55488;DHT22;41352;53.158;6.788;2022-11-15T00:25:32;7.20;99.90
55488;DHT22;41352;53.158;6.788;2022-11-15T00:27:59;7.20;99.90
55488;DHT22;41352;53.158;6.788;2022-11-15T00:30:25;7.10;99.90
55488;DHT22;41352;53.158;6.788;2022-11-15T00:32:51;7.00;99.90
55488;DHT22;41352;53.158;6.788;2022-11-15T00:35:17;6.90;99.90
55488;DHT22;41352;53.158;6.788;2022-11-15T00:40:12;6.90;99.90
55488;DHT22;41352;53.158;6.788;2022-11-15T00:42:40;6.90;99.90
55488;DHT22;41352;53.158;6.788;2022-11-15T00:45:07;6.90;99.90
55488;DHT22;41352;53.158;6.788;2022-11-15T00:47:33;6.90;99.90
55488;DHT22;41352;53.158;6.788;2022-11-15T00:49:58;6.90;99.90
55488;DHT22;41352;53.158;6.788;2022-11-15T00:52:24;6.90;99.90
55488;DHT22;41352;53.158;6.788;2022-11-15T00:54:50;6.90;99.90
55488;DHT22;41352;53.158;6.788;2022-11-15T00:57:15;6.80;99.90
55488;DHT22;41352;53.158;6.788;2022-11-15T00:59:41;6.70;99.90
55488;DHT22;41352;53.158;6.788;2022-11-15T01:02:10;6.70;99.90
55488;DHT22;41352;53.158;6.788;2022-11-15T01:04:36;6.60;99.90
55488;DHT22;41352;53.158;6.788;2022-11-15T01:07:02;6.50;99.90
55488;DHT22;41352;53.158;6.788;2022-11-15T01:09:27;6.40;99.90
55488;DHT22;41352;53.158;6.788;2022-11-15T01:11:53;6.40;99.90
55488;DHT22;41352;53.158;6.788;2022-11-15T01:14:19;6.30;99.90
55488;DHT22;41352;53.158;6.788;2022-11-15T01:16:44;6.70;99.90
55488;DHT22;41352;53.158;6.788;2022-11-15T01:19:10;6.20;99.90
55488;DHT22;41352;53.158;6.788;2022-11-15T01:21:36;6.30;99.90
55488;DHT22;41352;53.158;6.788;2022-11-15T01:24:01;6.20;99.90
55488;DHT22;41352;53.158;6.788;2022-11-15T01:26:27;6.20;99.90
55488;DHT22;41352;53.158;6.788;2022-11-15T01:28:53;6.30;99.90
55488;DHT22;41352;53.158;6.788;2022-11-15T01:31:20;6.30;99.90
55488;DHT22;41352;53.158;6.788;2022-11-15T01:33:47;6.40;99.90
55488;DHT22;41352;53.158;6.788;2022-11-15T01:36:15;6.50;99.90
55488;DHT22;41352;53.158;6.788;2022-11-15T01:38:45;6.50;99.90
55488;DHT22;41352;53.158;6.788;2022-11-15T01:41:21;6.60;99.90
55488;DHT22;41352;53.158;6.788;2022-11-15T01:43:51;6.70;99.90
55488;DHT22;41352;53.158;6.788;2022-11-15T01:46:35;7.70;99.90
55488;DHT22;41352;53.158;6.788;2022-11-15T01:49:09;6.80;99.90
55488;DHT22;41352;53.158;6.788;2022-11-15T01:51:36;6.90;99.90
55488;DHT22;41352;53.158;6.788;2022-11-15T01:54:08;6.90;99.90
55488;DHT22;41352;53.158;6.788;2022-11-15T01:56:38;7.00;99.90
55488;DHT22;41352;53.158;6.788;2022-11-15T01:59:07;7.00;99.90
55488;DHT22;41352;53.158;6.788;2022-11-15T02:01:34;7.00;99.90
55488;DHT22;41352;53.158;6.788;2022-11-15T02:04:17;7.10;99.90
55488;DHT22;41352;53.158;6.788;2022-11-15T02:06:47;7.20;99.90
55488;DHT22;41352;53.158;6.788;2022-11-15T02:09:13;7.10;99.90
55488;DHT22;41352;53.158;6.788;2022-11-15T02:11:39;7.20;99.90
55488;DHT22;41352;53.158;6.788;2022-11-15T02:14:06;7.20;99.90
55488;DHT22;41352;53.158;6.788;2022-11-15T02:19:20;7.20;99.90
55488;DHT22;41352;53.158;6.788;2022-11-15T02:27:38;7.30;99.90
55488;DHT22;41352;53.158;6.788;2022-11-15T02:43:12;7.30;99.90
55488;DHT22;41352;53.158;6.788;2022-11-15T02:46:09;7.30;99.90
55488;DHT22;41352;53.158;6.788;2022-11-15T02:48:39;7.30;99.90
55488;DHT22;41352;53.158;6.788;2022-11-15T02:51:05;7.40;99.90
55488;DHT22;41352;53.158;6.788;2022-11-15T02:53:31;8.90;99.90
55488;DHT22;41352;53.158;6.788;2022-11-15T02:55:56;7.40;99.90
55488;DHT22;41352;53.158;6.788;2022-11-15T03:09:23;7.40;99.90
55488;DHT22;41352;53.158;6.788;2022-11-15T03:12:01;7.50;99.90
55488;DHT22;41352;53.158;6.788;2022-11-15T03:17:30;7.50;99.90
55488;DHT22;41352;53.158;6.788;2022-11-15T03:19:58;7.50;99.90
55488;DHT22;41352;53.158;6.788;2022-11-15T03:22:27;7.50;99.90
55488;DHT22;41352;53.158;6.788;2022-11-15T03:24:57;7.50;99.90
55488;DHT22;41352;53.158;6.788;2022-11-15T03:27:28;7.50;99.90
55488;DHT22;41352;53.158;6.788;2022-11-15T03:29:59;7.60;99.90
55488;DHT22;41352;53.158;6.788;2022-11-15T03:32:28;7.50;99.90
55488;DHT22;41352;53.158;6.788;2022-11-15T03:35:00;7.60;99.90
55488;DHT22;41352;53.158;6.788;2022-11-15T03:40:10;7.60;99.90
55488;DHT22;41352;53.158;6.788;2022-11-15T03:45:17;7.60;99.90
55488;DHT22;41352;53.158;6.788;2022-11-15T03:50:29;7.60;99.90
55488;DHT22;41352;53.158;6.788;2022-11-15T03:52:55;7.60;99.90
55488;DHT22;41352;53.158;6.788;2022-11-15T03:55:22;7.70;99.90
55488;DHT22;41352;53.158;6.788;2022-11-15T03:57:51;7.70;99.90
55488;DHT22;41352;53.158;6.788;2022-11-15T04:00:18;7.70;99.90
55488;DHT22;41352;53.158;6.788;2022-11-15T04:02:45;7.80;99.90
55488;DHT22;41352;53.158;6.788;2022-11-15T04:05:11;7.70;99.90
55488;DHT22;41352;53.158;6.788;2022-11-15T04:07:37;7.80;99.90
55488;DHT22;41352;53.158;6.788;2022-11-15T04:10:03;7.80;99.90
55488;DHT22;41352;53.158;6.788;2022-11-15T04:12:33;7.80;99.90
55488;DHT22;41352;53.158;6.788;2022-11-15T04:15:07;7.80;99.90
55488;DHT22;41352;53.158;6.788;2022-11-15T04:20:25;7.90;99.90
55488;DHT22;41352;53.158;6.788;2022-11-15T04:23:18;7.90;99.90
55488;DHT22;41352;53.158;6.788;2022-11-15T04:26:23;7.90;99.90
55488;DHT22;41352;53.158;6.788;2022-11-15T04:28:49;7.90;99.90
55488;DHT22;41352;53.158;6.788;2022-11-15T04:31:34;7.90;99.90
55488;DHT22;41352;53.158;6.788;2022-11-15T04:34:00;8.00;99.90
55488;DHT22;41352;53.158;6.788;2022-11-15T04:36:25;7.90;99.90
55488;DHT22;41352;53.158;6.788;2022-11-15T04:39:10;7.90;99.90
55488;DHT22;41352;53.158;6.788;2022-11-15T04:41:36;7.90;99.90
55488;DHT22;41352;53.158;6.788;2022-11-15T04:44:02;8.00;99.90
55488;DHT22;41352;53.158;6.788;2022-11-15T04:46:28;8.00;99.90
55488;DHT22;41352;53.158;6.788;2022-11-15T04:48:54;8.00;99.90
55488;DHT22;41352;53.158;6.788;2022-11-15T04:51:20;8.00;99.90
55488;DHT22;41352;53.158;6.788;2022-11-15T04:53:46;8.00;99.90
55488;DHT22;41352;53.158;6.788;2022-11-15T04:56:12;8.00;99.90
55488;DHT22;41352;53.158;6.788;2022-11-15T04:58:37;8.00;99.90
55488;DHT22;41352;53.158;6.788;2022-11-15T05:01:11;8.00;99.90
55488;DHT22;41352;53.158;6.788;2022-11-15T05:03:39;8.00;99.90
55488;DHT22;41352;53.158;6.788;2022-11-15T05:06:06;8.00;99.90
55488;DHT22;41352;53.158;6.788;2022-11-15T05:08:32;8.00;99.90
55488;DHT22;41352;53.158;6.788;2022-11-15T05:10:58;8.10;99.90
55488;DHT22;41352;53.158;6.788;2022-11-15T05:13:24;8.10;99.90
55488;DHT22;41352;53.158;6.788;2022-11-15T05:15:50;8.20;99.90
55488;DHT22;41352;53.158;6.788;2022-11-15T05:18:15;8.20;99.90
55488;DHT22;41352;53.158;6.788;2022-11-15T05:23:11;8.10;99.90
55488;DHT22;41352;53.158;6.788;2022-11-15T05:25:36;8.50;99.90
55488;DHT22;41352;53.158;6.788;2022-11-15T05:28:03;8.20;99.90
55488;DHT22;41352;53.158;6.788;2022-11-15T05:30:29;8.20;99.90
55488;DHT22;41352;53.158;6.788;2022-11-15T05:32:55;8.20;99.90
55488;DHT22;41352;53.158;6.788;2022-11-15T05:35:39;8.20;99.90
55488;DHT22;41352;53.158;6.788;2022-11-15T05:38:07;8.20;99.90
55488;DHT22;41352;53.158;6.788;2022-11-15T05:40:34;8.30;99.90
55488;DHT22;41352;53.158;6.788;2022-11-15T05:43:00;8.30;99.90
55488;DHT22;41352;53.158;6.788;2022-11-15T05:45:28;8.30;99.90
55488;DHT22;41352;53.158;6.788;2022-11-15T05:47:55;8.40;99.90
55488;DHT22;41352;53.158;6.788;2022-11-15T05:50:22;8.40;99.90
55488;DHT22;41352;53.158;6.788;2022-11-15T05:52:48;8.40;99.90
55488;DHT22;41352;53.158;6.788;2022-11-15T05:55:14;8.40;99.90
55488;DHT22;41352;53.158;6.788;2022-11-15T05:57:40;8.50;99.90
55488;DHT22;41352;53.158;6.788;2022-11-15T06:00:06;8.40;99.90
55488;DHT22;41352;53.158;6.788;2022-11-15T06:02:33;8.50;99.90
55488;DHT22;41352;53.158;6.788;2022-11-15T06:04:59;8.50;99.90
55488;DHT22;41352;53.158;6.788;2022-11-15T06:07:24;8.50;99.90
55488;DHT22;41352;53.158;6.788;2022-11-15T06:09:50;8.50;99.90
55488;DHT22;41352;53.158;6.788;2022-11-15T06:12:16;8.60;99.90
55488;DHT22;41352;53.158;6.788;2022-11-15T06:17:07;8.70;99.90
55488;DHT22;41352;53.158;6.788;2022-11-15T06:19:32;8.70;99.90
55488;DHT22;41352;53.158;6.788;2022-11-15T06:21:59;8.80;99.90
55488;DHT22;41352;53.158;6.788;2022-11-15T06:24:25;8.80;99.90
55488;DHT22;41352;53.158;6.788;2022-11-15T06:26:51;8.80;99.90
55488;DHT22;41352;53.158;6.788;2022-11-15T06:29:16;8.90;99.90
55488;DHT22;41352;53.158;6.788;2022-11-15T06:31:45;8.90;99.90
55488;DHT22;41352;53.158;6.788;2022-11-15T06:34:11;9.00;99.90
55488;DHT22;41352;53.158;6.788;2022-11-15T06:36:37;9.00;99.90
55488;DHT22;41352;53.158;6.788;2022-11-15T06:39:04;9.00;99.90
55488;DHT22;41352;53.158;6.788;2022-11-15T06:41:29;9.00;99.90
55488;DHT22;41352;53.158;6.788;2022-11-15T06:43:56;9.10;99.90
55488;DHT22;41352;53.158;6.788;2022-11-15T06:46:22;9.30;99.90
55488;DHT22;41352;53.158;6.788;2022-11-15T06:48:51;9.10;99.90
55488;DHT22;41352;53.158;6.788;2022-11-15T06:51:16;9.20;99.90
55488;DHT22;41352;53.158;6.788;2022-11-15T06:53:46;9.20;99.90
55488;DHT22;41352;53.158;6.788;2022-11-15T06:56:12;9.20;99.90
55488;DHT22;41352;53.158;6.788;2022-11-15T06:58:37;9.30;99.90
55488;DHT22;41352;53.158;6.788;2022-11-15T07:01:09;9.40;99.90
55488;DHT22;41352;53.158;6.788;2022-11-15T07:03:36;9.30;99.90
55488;DHT22;41352;53.158;6.788;2022-11-15T07:06:03;9.80;99.90
55488;DHT22;41352;53.158;6.788;2022-11-15T07:08:29;9.30;99.90
55488;DHT22;41352;53.158;6.788;2022-11-15T07:11:01;9.30;99.90
55488;DHT22;41352;53.158;6.788;2022-11-15T07:13:28;9.30;99.90
55488;DHT22;41352;53.158;6.788;2022-11-15T07:15:54;8.40;99.90
55488;DHT22;41352;53.158;6.788;2022-11-15T07:18:20;9.40;99.90
55488;DHT22;41352;53.158;6.788;2022-11-15T07:20:46;9.40;99.90
55488;DHT22;41352;53.158;6.788;2022-11-15T07:23:12;9.40;99.90
55488;DHT22;41352;53.158;6.788;2022-11-15T07:25:38;9.40;99.90
55488;DHT22;41352;53.158;6.788;2022-11-15T07:28:03;9.50;99.90
55488;DHT22;41352;53.158;6.788;2022-11-15T07:30:29;9.50;99.90
55488;DHT22;41352;53.158;6.788;2022-11-15T07:32:56;9.50;99.90
55488;DHT22;41352;53.158;6.788;2022-11-15T07:35:22;9.50;99.90
55488;DHT22;41352;53.158;6.788;2022-11-15T07:37:59;9.60;99.90
55488;DHT22;41352;53.158;6.788;2022-11-15T07:40:28;9.60;99.90
55488;DHT22;41352;53.158;6.788;2022-11-15T07:43:01;9.60;99.90
55488;DHT22;41352;53.158;6.788;2022-11-15T07:45:27;9.70;99.90
55488;DHT22;41352;53.158;6.788;2022-11-15T07:47:52;9.60;99.90
55488;DHT22;41352;53.158;6.788;2022-11-15T07:50:18;9.70;99.90
55488;DHT22;41352;53.158;6.788;2022-11-15T07:52:45;9.80;99.90
55488;DHT22;41352;53.158;6.788;2022-11-15T07:55:11;9.80;99.90
55488;DHT22;41352;53.158;6.788;2022-11-15T07:57:37;9.90;99.90
55488;DHT22;41352;53.158;6.788;2022-11-15T08:00:04;9.90;99.90
55488;DHT22;41352;53.158;6.788;2022-11-15T08:02:30;9.90;99.90
55488;DHT22;41352;53.158;6.788;2022-11-15T08:04:56;10.00;99.90
55488;DHT22;41352;53.158;6.788;2022-11-15T08:07:22;10.00;99.90
55488;DHT22;41352;53.158;6.788;2022-11-15T08:09:47;10.00;99.90
55488;DHT22;41352;53.158;6.788;2022-11-15T08:12:14;10.10;99.90
55488;DHT22;41352;53.158;6.788;2022-11-15T08:14:40;10.10;99.90
55488;DHT22;41352;53.158;6.788;2022-11-15T08:17:05;10.10;99.90
55488;DHT22;41352;53.158;6.788;2022-11-15T08:19:31;10.20;99.90
55488;DHT22;41352;53.158;6.788;2022-11-15T08:21:58;10.20;99.90
55488;DHT22;41352;53.158;6.788;2022-11-15T08:24:23;10.30;99.90
55488;DHT22;41352;53.158;6.788;2022-11-15T08:26:49;10.50;99.90
55488;DHT22;41352;53.158;6.788;2022-11-15T08:29:15;10.30;99.90
55488;DHT22;41352;53.158;6.788;2022-11-15T08:34:11;10.70;99.90
55488;DHT22;41352;53.158;6.788;2022-11-15T08:36:36;10.80;99.90
55488;DHT22;41352;53.158;6.788;2022-11-15T08:39:02;10.80;99.90
55488;DHT22;41352;53.158;6.788;2022-11-15T08:41:32;10.80;99.90
55488;DHT22;41352;53.158;6.788;2022-11-15T08:43:58;10.90;99.90
55488;DHT22;41352;53.158;6.788;2022-11-15T08:46:24;10.90;99.90
55488;DHT22;41352;53.158;6.788;2022-11-15T08:48:50;11.00;99.90
55488;DHT22;41352;53.158;6.788;2022-11-15T08:51:16;11.00;99.90
55488;DHT22;41352;53.158;6.788;2022-11-15T08:54:06;11.10;99.90
55488;DHT22;41352;53.158;6.788;2022-11-15T08:56:32;11.20;99.90
55488;DHT22;41352;53.158;6.788;2022-11-15T08:58:58;11.20;99.90
55488;DHT22;41352;53.158;6.788;2022-11-15T09:01:23;11.30;99.90
55488;DHT22;41352;53.158;6.788;2022-11-15T09:03:49;11.40;99.90
55488;DHT22;41352;53.158;6.788;2022-11-15T09:06:15;11.40;99.90
55488;DHT22;41352;53.158;6.788;2022-11-15T09:08:41;11.40;99.90
55488;DHT22;41352;53.158;6.788;2022-11-15T09:11:08;11.40;99.90
55488;DHT22;41352;53.158;6.788;2022-11-15T09:13:35;11.50;99.90
55488;DHT22;41352;53.158;6.788;2022-11-15T09:16:04;11.50;99.90
55488;DHT22;41352;53.158;6.788;2022-11-15T09:18:31;11.60;99.90
55488;DHT22;41352;53.158;6.788;2022-11-15T09:21:00;11.60;99.90
55488;DHT22;41352;53.158;6.788;2022-11-15T09:23:27;11.60;99.90
55488;DHT22;41352;53.158;6.788;2022-11-15T09:25:59;11.70;99.90
55488;DHT22;41352;53.158;6.788;2022-11-15T09:28:25;11.80;99.90
55488;DHT22;41352;53.158;6.788;2022-11-15T09:30:51;11.90;99.90
55488;DHT22;41352;53.158;6.788;2022-11-15T09:33:16;12.00;99.90
55488;DHT22;41352;53.158;6.788;2022-11-15T09:35:49;12.20;99.90
55488;DHT22;41352;53.158;6.788;2022-11-15T09:38:15;12.20;99.90
55488;DHT22;41352;53.158;6.788;2022-11-15T09:40:40;12.20;99.90
55488;DHT22;41352;53.158;6.788;2022-11-15T09:45:42;12.30;99.90
55488;DHT22;41352;53.158;6.788;2022-11-15T09:56:41;12.40;99.90
55488;DHT22;41352;53.158;6.788;2022-11-15T10:04:38;12.50;99.90
55488;DHT22;41352;53.158;6.788;2022-11-15T10:12:13;12.30;99.90
55488;DHT22;41352;53.158;6.788;2022-11-15T10:14:39;12.30;99.90
55488;DHT22;41352;53.158;6.788;2022-11-15T10:20:16;12.30;99.90
55488;DHT22;41352;53.158;6.788;2022-11-15T10:22:50;12.20;99.90
55488;DHT22;41352;53.158;6.788;2022-11-15T10:25:19;12.20;99.90
55488;DHT22;41352;53.158;6.788;2022-11-15T10:27:52;12.10;99.90
55488;DHT22;41352;53.158;6.788;2022-11-15T10:30:19;12.20;99.90
55488;DHT22;41352;53.158;6.788;2022-11-15T10:32:47;12.10;99.90
55488;DHT22;41352;53.158;6.788;2022-11-15T10:35:39;12.20;99.90
55488;DHT22;41352;53.158;6.788;2022-11-15T10:38:10;12.10;99.90
55488;DHT22;41352;53.158;6.788;2022-11-15T10:40:37;12.20;99.90
55488;DHT22;41352;53.158;6.788;2022-11-15T10:45:36;12.10;99.90
55488;DHT22;41352;53.158;6.788;2022-11-15T10:50:41;12.00;99.90
55488;DHT22;41352;53.158;6.788;2022-11-15T10:58:38;12.00;99.90
55488;DHT22;41352;53.158;6.788;2022-11-15T11:01:18;12.00;99.90
55488;DHT22;41352;53.158;6.788;2022-11-15T11:06:24;12.00;99.90
55488;DHT22;41352;53.158;6.788;2022-11-15T11:08:59;12.00;99.90
55488;DHT22;41352;53.158;6.788;2022-11-15T11:11:44;11.90;99.90
55488;DHT22;41352;53.158;6.788;2022-11-15T11:14:13;12.00;99.90
55488;DHT22;41352;53.158;6.788;2022-11-15T11:19:16;12.20;99.90
55488;DHT22;41352;53.158;6.788;2022-11-15T11:27:21;12.20;99.90
55488;DHT22;41352;53.158;6.788;2022-11-15T11:49:15;13.50;99.90
55488;DHT22;41352;53.158;6.788;2022-11-15T11:57:04;14.00;99.90
55488;DHT22;41352;53.158;6.788;2022-11-15T12:02:35;14.00;99.90
55488;DHT22;41352;53.158;6.788;2022-11-15T12:05:18;13.80;99.90
55488;DHT22;41352;53.158;6.788;2022-11-15T12:07:49;13.70;99.90
55488;DHT22;41352;53.158;6.788;2022-11-15T12:15:33;14.20;99.90
55488;DHT22;41352;53.158;6.788;2022-11-15T12:18:01;14.30;99.90
55488;DHT22;41352;53.158;6.788;2022-11-15T12:20:31;14.20;99.90
55488;DHT22;41352;53.158;6.788;2022-11-15T12:23:05;14.20;99.90
55488;DHT22;41352;53.158;6.788;2022-11-15T12:25:34;14.00;99.90
55488;DHT22;41352;53.158;6.788;2022-11-15T12:28:24;13.80;99.90
55488;DHT22;41352;53.158;6.788;2022-11-15T12:31:11;13.80;99.90
55488;DHT22;41352;53.158;6.788;2022-11-15T12:33:41;13.80;99.90
55488;DHT22;41352;53.158;6.788;2022-11-15T12:36:32;13.60;99.90
55488;DHT22;41352;53.158;6.788;2022-11-15T12:39:05;13.50;99.90
55488;DHT22;41352;53.158;6.788;2022-11-15T12:41:37;13.50;99.90
55488;DHT22;41352;53.158;6.788;2022-11-15T12:44:04;13.60;99.90
55488;DHT22;41352;53.158;6.788;2022-11-15T12:49:09;13.50;99.90
55488;DHT22;41352;53.158;6.788;2022-11-15T13:20:16;13.60;99.90
55488;DHT22;41352;53.158;6.788;2022-11-15T13:35:48;14.00;99.90
55488;DHT22;41352;53.158;6.788;2022-11-15T13:38:39;14.00;99.90
55488;DHT22;41352;53.158;6.788;2022-11-15T13:41:19;13.80;99.90
55488;DHT22;41352;53.158;6.788;2022-11-15T13:43:46;13.80;99.90
55488;DHT22;41352;53.158;6.788;2022-11-15T13:46:22;13.70;99.90
55488;DHT22;41352;53.158;6.788;2022-11-15T13:49:03;13.60;99.90
55488;DHT22;41352;53.158;6.788;2022-11-15T13:59:44;13.50;99.90
55488;DHT22;41352;53.158;6.788;2022-11-15T14:02:14;13.40;99.90
55488;DHT22;41352;53.158;6.788;2022-11-15T14:07:17;13.40;99.90
55488;DHT22;41352;53.158;6.788;2022-11-15T14:09:47;13.30;99.90
55488;DHT22;41352;53.158;6.788;2022-11-15T14:12:24;13.20;99.90
55488;DHT22;41352;53.158;6.788;2022-11-15T14:14:50;13.20;99.90
55488;DHT22;41352;53.158;6.788;2022-11-15T14:17:20;13.10;99.90
55488;DHT22;41352;53.158;6.788;2022-11-15T14:19:46;13.10;99.90
55488;DHT22;41352;53.158;6.788;2022-11-15T14:22:23;12.90;99.90
55488;DHT22;41352;53.158;6.788;2022-11-15T14:25:20;13.00;99.90
55488;DHT22;41352;53.158;6.788;2022-11-15T14:30:50;12.70;99.90
55488;DHT22;41352;53.158;6.788;2022-11-15T14:35:52;12.50;99.90
55488;DHT22;41352;53.158;6.788;2022-11-15T14:38:17;12.40;99.90
55488;DHT22;41352;53.158;6.788;2022-11-15T14:40:47;12.40;99.90
55488;DHT22;41352;53.158;6.788;2022-11-15T14:43:13;12.30;99.90
55488;DHT22;41352;53.158;6.788;2022-11-15T14:45:39;12.20;99.90
55488;DHT22;41352;53.158;6.788;2022-11-15T14:48:05;12.10;99.90
55488;DHT22;41352;53.158;6.788;2022-11-15T14:50:32;12.10;99.90
55488;DHT22;41352;53.158;6.788;2022-11-15T14:52:58;12.00;99.90
55488;DHT22;41352;53.158;6.788;2022-11-15T14:55:29;12.00;99.90
55488;DHT22;41352;53.158;6.788;2022-11-15T14:57:58;11.90;99.90
55488;DHT22;41352;53.158;6.788;2022-11-15T15:00:24;11.70;99.90
55488;DHT22;41352;53.158;6.788;2022-11-15T15:02:53;11.70;99.90
55488;DHT22;41352;53.158;6.788;2022-11-15T15:05:24;11.60;99.90
55488;DHT22;41352;53.158;6.788;2022-11-15T15:07:51;11.50;99.90
55488;DHT22;41352;53.158;6.788;2022-11-15T15:10:18;11.50;99.90
55488;DHT22;41352;53.158;6.788;2022-11-15T15:13:17;11.40;99.90
55488;DHT22;41352;53.158;6.788;2022-11-15T15:18:12;11.10;99.90
55488;DHT22;41352;53.158;6.788;2022-11-15T15:20:39;11.10;99.90
55488;DHT22;41352;53.158;6.788;2022-11-15T15:23:17;10.90;99.90
55488;DHT22;41352;53.158;6.788;2022-11-15T15:28:13;10.80;99.90
55488;DHT22;41352;53.158;6.788;2022-11-15T15:30:39;10.70;99.90
55488;DHT22;41352;53.158;6.788;2022-11-15T15:33:04;10.60;99.90
55488;DHT22;41352;53.158;6.788;2022-11-15T15:35:32;10.50;99.90
55488;DHT22;41352;53.158;6.788;2022-11-15T15:37:58;10.40;99.90
55488;DHT22;41352;53.158;6.788;2022-11-15T15:40:25;10.40;99.90
55488;DHT22;41352;53.158;6.788;2022-11-15T15:42:51;10.20;99.90
55488;DHT22;41352;53.158;6.788;2022-11-15T15:45:18;10.10;99.90
55488;DHT22;41352;53.158;6.788;2022-11-15T15:47:48;10.10;99.90
55488;DHT22;41352;53.158;6.788;2022-11-15T15:50:23;10.10;99.90
55488;DHT22;41352;53.158;6.788;2022-11-15T15:52:51;10.00;99.90
55488;DHT22;41352;53.158;6.788;2022-11-15T15:55:17;10.00;99.90
55488;DHT22;41352;53.158;6.788;2022-11-15T16:00:12;10.00;99.90
55488;DHT22;41352;53.158;6.788;2022-11-15T16:05:11;10.00;99.90
55488;DHT22;41352;53.158;6.788;2022-11-15T16:07:38;10.00;99.90
55488;DHT22;41352;53.158;6.788;2022-11-15T16:12:47;10.00;99.90
55488;DHT22;41352;53.158;6.788;2022-11-15T16:15:13;10.10;99.90
55488;DHT22;41352;53.158;6.788;2022-11-15T16:20:22;10.00;99.90
55488;DHT22;41352;53.158;6.788;2022-11-15T16:22:49;10.00;99.90
55488;DHT22;41352;53.158;6.788;2022-11-15T16:25:14;10.00;99.90
55488;DHT22;41352;53.158;6.788;2022-11-15T16:27:40;10.00;99.90
55488;DHT22;41352;53.158;6.788;2022-11-15T16:30:14;10.00;99.90
55488;DHT22;41352;53.158;6.788;2022-11-15T16:32:40;10.00;99.90
55488;DHT22;41352;53.158;6.788;2022-11-15T16:35:10;10.10;99.90
55488;DHT22;41352;53.158;6.788;2022-11-15T16:37:36;10.00;99.90
55488;DHT22;41352;53.158;6.788;2022-11-15T16:40:01;10.00;99.90
55488;DHT22;41352;53.158;6.788;2022-11-15T16:42:27;10.00;99.90
55488;DHT22;41352;53.158;6.788;2022-11-15T16:44:53;10.00;99.90
55488;DHT22;41352;53.158;6.788;2022-11-15T16:47:18;10.00;99.90
55488;DHT22;41352;53.158;6.788;2022-11-15T16:49:46;10.00;99.90
55488;DHT22;41352;53.158;6.788;2022-11-15T16:52:12;10.00;99.90
55488;DHT22;41352;53.158;6.788;2022-11-15T16:54:37;10.00;99.90
55488;DHT22;41352;53.158;6.788;2022-11-15T16:57:03;10.10;99.90
55488;DHT22;41352;53.158;6.788;2022-11-15T16:59:29;10.10;99.90
55488;DHT22;41352;53.158;6.788;2022-11-15T17:01:58;10.10;99.90
55488;DHT22;41352;53.158;6.788;2022-11-15T17:04:23;10.10;99.90
55488;DHT22;41352;53.158;6.788;2022-11-15T17:06:52;10.20;99.90
55488;DHT22;41352;53.158;6.788;2022-11-15T17:09:22;10.10;99.90
55488;DHT22;41352;53.158;6.788;2022-11-15T17:11:51;10.10;99.90
55488;DHT22;41352;53.158;6.788;2022-11-15T17:14:18;10.10;99.90
55488;DHT22;41352;53.158;6.788;2022-11-15T17:19:14;10.10;99.90
55488;DHT22;41352;53.158;6.788;2022-11-15T17:21:41;10.10;99.90
55488;DHT22;41352;53.158;6.788;2022-11-15T17:24:11;10.10;99.90
55488;DHT22;41352;53.158;6.788;2022-11-15T17:26:37;10.20;99.90
55488;DHT22;41352;53.158;6.788;2022-11-15T17:29:04;10.10;99.90
55488;DHT22;41352;53.158;6.788;2022-11-15T17:31:33;10.10;99.90
55488;DHT22;41352;53.158;6.788;2022-11-15T17:34:01;10.10;99.90
55488;DHT22;41352;53.158;6.788;2022-11-15T17:36:27;10.10;99.90
55488;DHT22;41352;53.158;6.788;2022-11-15T17:38:53;10.20;99.90
55488;DHT22;41352;53.158;6.788;2022-11-15T17:41:19;10.20;99.90
55488;DHT22;41352;53.158;6.788;2022-11-15T17:43:48;10.20;99.90
55488;DHT22;41352;53.158;6.788;2022-11-15T17:46:17;10.20;99.90
55488;DHT22;41352;53.158;6.788;2022-11-15T17:48:48;10.20;99.90
55488;DHT22;41352;53.158;6.788;2022-11-15T17:51:16;10.20;99.90
55488;DHT22;41352;53.158;6.788;2022-11-15T17:53:46;10.20;99.90
55488;DHT22;41352;53.158;6.788;2022-11-15T17:56:15;10.20;99.90
55488;DHT22;41352;53.158;6.788;2022-11-15T18:01:18;10.20;99.90
55488;DHT22;41352;53.158;6.788;2022-11-15T18:06:14;10.10;99.90
55488;DHT22;41352;53.158;6.788;2022-11-15T18:08:41;10.10;99.90
55488;DHT22;41352;53.158;6.788;2022-11-15T18:11:10;10.10;99.90
55488;DHT22;41352;53.158;6.788;2022-11-15T18:13:37;10.10;99.90
55488;DHT22;41352;53.158;6.788;2022-11-15T18:16:05;10.00;99.90
55488;DHT22;41352;53.158;6.788;2022-11-15T18:18:32;10.00;99.90
55488;DHT22;41352;53.158;6.788;2022-11-15T18:21:09;10.00;99.90
55488;DHT22;41352;53.158;6.788;2022-11-15T18:23:36;10.00;99.90
55488;DHT22;41352;53.158;6.788;2022-11-15T18:26:04;9.90;99.90
55488;DHT22;41352;53.158;6.788;2022-11-15T18:28:35;10.00;99.90
55488;DHT22;41352;53.158;6.788;2022-11-15T18:31:02;9.90;99.90
55488;DHT22;41352;53.158;6.788;2022-11-15T18:33:32;10.00;99.90
55488;DHT22;41352;53.158;6.788;2022-11-15T18:36:04;10.00;99.90
55488;DHT22;41352;53.158;6.788;2022-11-15T18:38:31;10.00;99.90
55488;DHT22;41352;53.158;6.788;2022-11-15T18:41:18;10.00;99.90
55488;DHT22;41352;53.158;6.788;2022-11-15T18:43:46;9.90;99.90
55488;DHT22;41352;53.158;6.788;2022-11-15T18:46:18;10.00;99.90
55488;DHT22;41352;53.158;6.788;2022-11-15T18:48:48;10.00;99.90
55488;DHT22;41352;53.158;6.788;2022-11-15T18:51:21;10.00;99.90
55488;DHT22;41352;53.158;6.788;2022-11-15T18:53:47;9.90;99.90
55488;DHT22;41352;53.158;6.788;2022-11-15T18:56:15;9.90;99.90
55488;DHT22;41352;53.158;6.788;2022-11-15T19:01:12;9.90;99.90
55488;DHT22;41352;53.158;6.788;2022-11-15T19:03:40;9.90;99.90
55488;DHT22;41352;53.158;6.788;2022-11-15T19:06:09;9.90;99.90
55488;DHT22;41352;53.158;6.788;2022-11-15T19:08:36;9.80;99.90
55488;DHT22;41352;53.158;6.788;2022-11-15T19:11:07;9.70;99.90
55488;DHT22;41352;53.158;6.788;2022-11-15T19:13:36;9.80;99.90
55488;DHT22;41352;53.158;6.788;2022-11-15T19:16:03;9.70;99.90
55488;DHT22;41352;53.158;6.788;2022-11-15T19:18:29;9.70;99.90
55488;DHT22;41352;53.158;6.788;2022-11-15T19:20:56;9.70;99.90
55488;DHT22;41352;53.158;6.788;2022-11-15T19:23:27;9.70;99.90
55488;DHT22;41352;53.158;6.788;2022-11-15T19:25:57;9.70;99.90
55488;DHT22;41352;53.158;6.788;2022-11-15T19:28:24;9.70;99.90
55488;DHT22;41352;53.158;6.788;2022-11-15T19:30:50;9.90;99.90